Impacts TAF Board
For situational awareness. Not to be used for flight planning purposes.
IDs:

KPVW - Plainview/Hale Cnty, TX, US

Issued at 1732 UTC 08 Aug 2020
Updated at 2122 UTC 08 Aug 2020
Potential Impact None Slight Moderate High
Time2115Z 08/22Z 08/23Z 09/00Z 09/01Z 09/02Z 09/03Z 09/04Z 09/05Z 09/06Z 09/07Z 09/08Z 09/09Z 09/10Z>>
Type OBS PRVL PRVL PRVL PRVL PRVL PRVL PRVL PRVL PRVL PRVL PRVL PRVL PRVL
VIS 10 >6 >6 >6 >6 >6 >6 >6 >6 >6 >6 >6 >6 >6
CIG -- -- 250 250 250 250 250 250 250 250 250 250 250 250
Cover CLR SCT BKN BKN BKN BKN BKN BKN BKN BKN BKN BKN BKN BKN
FltCat VFR VFR VFR VFR VFR VFR VFR VFR VFR VFR VFR VFR VFR VFR
WX -- -- -- -- -- -- -- -- -- -- -- -- -- --
WDir 200 210 180 180 180 180 180 180 180 180 180 180 180 180
WSpd 12 15 15 15 15 15 15 15 15 15 15 15 15 15
WGst 21 -- -- -- -- -- -- -- -- -- -- -- -- --
Raw TAF
KPVW 081732Z 0818/0918 21015KT P6SM FEW150 SCT250
  FM082300 18015KT P6SM FEW100 SCT150 BKN250


Raw METAR
KPVW 082115Z AUTO 20012G21KT 10SM CLR 35/13 A3007 RMK AO2 T03470130
KPVW 082055Z AUTO 17012G21KT 10SM CLR 35/13 A3008 RMK AO2 T03470131
KPVW 082035Z AUTO 19011G19KT 10SM CLR 34/13 A3008 RMK AO2 T03440130
KPVW 082015Z AUTO 19009G18KT 10SM CLR 35/13 A3009 RMK AO2 T03450132
KPVW 081955Z AUTO 19011G19KT 10SM CLR 34/14 A3009 RMK AO2 T03400135
KPVW 081935Z AUTO 20011G19KT 10SM CLR 35/14 A3010 RMK AO2 T03480138
KPVW 081915Z AUTO 23010G19KT 10SM CLR 34/13 A3010 RMK AO2 T03390131
KPVW 081855Z AUTO 19012G17KT 10SM CLR 34/14 A3010 RMK AO2 T03350141
KPVW 081835Z AUTO 23011G20KT 10SM CLR 34/15 A3011 RMK AO2 T03350147

METAR Board
For situational awareness. Not to be used for flight planning purposes.